< Typhoon 202007 2020 Season Typhoon 202009 >
Typhoon 202008 (BAVI)
General InformationTrack Information on Google MapsDetailed Wind InformationForecast History on Google MapsAccess Analytics MapList of All Images || NewsDisaster Info.WeblogTrackbackTyphoon FrontTwiphoonTyphoon Now!Typhoon ImaginationJMA Disaster Info. XMLResourceGoogle EarthGE AnimationAtom FeedGeoJSON
Detalied Best Track (Time Zone = UTC)
Year Month Day Hour Lat. Long. Pressure (hPa) Wind (kt) Class Image Chart
2020 8 20 18 18.7 122.8 1006 0 2 Image Chart
2020 8 21 00 20.2 123.1 1008 0 2 Image Chart
2020 8 21 06 21.3 123.2 1006 0 2 Image Chart
2020 8 21 12 22.1 123.1 1006 0 2 Image Chart
2020 8 21 18 22.9 123.0 1004 0 2 Image Chart
2020 8 22 00 23.4 122.6 1000 35 3 Image Chart
2020 8 22 06 24.3 123.5 994 45 3 Image Chart
2020 8 22 09 24.7 123.7 990 55 4 Image Chart
2020 8 22 12 25.3 123.8 990 55 4 Image Chart
2020 8 22 15 25.6 123.5 990 55 4 Image Chart
2020 8 22 18 25.7 123.6 990 55 4 Image Chart
2020 8 22 21 26.0 123.8 990 55 4 Image Chart
2020 8 23 00 26.3 123.9 990 55 4 Image Chart
2020 8 23 03 26.5 124.0 990 55 4 Image Chart
2020 8 23 06 26.6 124.3 990 55 4 Image Chart
2020 8 23 09 26.7 124.6 990 55 4 Image Chart
2020 8 23 12 26.8 125.0 985 60 4 Image Chart
2020 8 23 15 27.0 125.2 985 60 4 Image Chart
2020 8 23 18 27.1 125.6 985 60 4 Image Chart
2020 8 23 21 27.2 125.9 985 60 4 Image Chart
2020 8 24 00 27.3 126.1 980 65 5 Image Chart
2020 8 24 03 27.4 126.4 975 65 5 Image Chart
2020 8 24 06 27.8 126.4 975 65 5 Image Chart
2020 8 24 09 28.2 126.4 975 65 5 Image Chart
2020 8 24 12 28.4 126.3 970 70 5 Image Chart
2020 8 24 18 28.6 126.0 965 75 5 Image Chart
2020 8 25 00 29.2 125.7 955 80 5 Image Chart
2020 8 25 06 29.8 125.5 955 80 5 Image Chart
2020 8 25 12 30.6 125.2 955 80 5 Image Chart
2020 8 25 18 31.4 124.8 955 80 5 Image Chart
2020 8 26 00 32.4 124.5 950 85 5 Image Chart
2020 8 26 06 33.6 124.3 950 85 5 Image Chart
2020 8 26 12 35.0 124.4 955 80 5 Image Chart
2020 8 26 18 37.0 125.2 965 70 5 Image Chart
2020 8 27 00 39.1 125.3 980 55 4 Image Chart
2020 8 27 06 42.0 125.0 992 0 6 Image Chart
2020 8 27 12 43.8 126.2 996 0 6 Image Chart
2020 8 27 18 45.4 127.0 998 0 6 Image Chart
2020 8 28 00 45.0 126.1 1002 0 6 Image Chart
2020 8 28 06 44.7 125.6 1002 0 6 Image Chart
2020 8 28 12 44.6 125.9 1004 0 6 Image Chart
2020 8 28 18 45.3 125.2 1006 0 6 Image Chart
2020 8 29 00 46.4 124.6 1006 0 6 Image Chart
2020 8 29 06 46.8 123.6 1008 0 6 Image Chart
2020 8 29 12 46.6 123.8 1010 0 6 Image Chart
2020 8 29 18 46.6 124.4 1012 0 6 Image Chart
Japan Meteorological Agency Best Track Data | Correction Date : 2020-12-03
< Typhoon 202007 2020 Season Typhoon 202009 >

Help